sensor_id;sensor_type;location;lat;lon;timestamp;pressure;altitude;pressure_sealevel;temperature;humidity
30744;BME280;17486;46.738;7.622;2023-03-19T00:01:04;95059.72;;;13.80;42.41
30744;BME280;17486;46.738;7.622;2023-03-19T00:03:30;95054.28;;;13.83;42.23
30744;BME280;17486;46.738;7.622;2023-03-19T00:05:56;95065.66;;;13.82;42.33
30744;BME280;17486;46.738;7.622;2023-03-19T00:08:22;95040.53;;;13.66;42.46
30744;BME280;17486;46.738;7.622;2023-03-19T00:10:47;94987.09;;;13.30;42.62
30744;BME280;17486;46.738;7.622;2023-03-19T00:13:13;95002.41;;;13.36;42.61
30744;BME280;17486;46.738;7.622;2023-03-19T00:15:38;95010.25;;;13.36;42.56
30744;BME280;17486;46.738;7.622;2023-03-19T00:18:04;95064.59;;;13.71;42.89
30744;BME280;17486;46.738;7.622;2023-03-19T00:20:31;95062.41;;;13.65;42.83
30744;BME280;17486;46.738;7.622;2023-03-19T00:22:56;95063.00;;;13.56;42.88
30744;BME280;17486;46.738;7.622;2023-03-19T00:25:22;94995.91;;;13.15;42.86
30744;BME280;17486;46.738;7.622;2023-03-19T00:27:47;95073.84;;;13.50;42.50
30744;BME280;17486;46.738;7.622;2023-03-19T00:30:13;95013.06;;;13.19;42.64
30744;BME280;17486;46.738;7.622;2023-03-19T00:32:39;95085.75;;;13.54;42.54
30744;BME280;17486;46.738;7.622;2023-03-19T00:35:05;95083.78;;;13.57;42.66
30744;BME280;17486;46.738;7.622;2023-03-19T00:37:31;95068.16;;;13.43;42.54
30744;BME280;17486;46.738;7.622;2023-03-19T00:39:57;95086.41;;;13.57;42.58
30744;BME280;17486;46.738;7.622;2023-03-19T00:42:22;95075.69;;;13.48;42.28
30744;BME280;17486;46.738;7.622;2023-03-19T00:44:48;95089.94;;;13.56;42.62
30744;BME280;17486;46.738;7.622;2023-03-19T00:47:13;95063.75;;;13.43;42.51
30744;BME280;17486;46.738;7.622;2023-03-19T00:49:38;95012.63;;;13.12;42.78
30744;BME280;17486;46.738;7.622;2023-03-19T00:52:04;95079.44;;;13.43;42.75
30744;BME280;17486;46.738;7.622;2023-03-19T00:54:29;95023.72;;;13.16;42.91
30744;BME280;17486;46.738;7.622;2023-03-19T00:56:56;95021.28;;;13.13;42.81
30744;BME280;17486;46.738;7.622;2023-03-19T00:59:23;95084.75;;;13.42;42.72
30744;BME280;17486;46.738;7.622;2023-03-19T01:01:49;95089.06;;;13.43;42.80
30744;BME280;17486;46.738;7.622;2023-03-19T01:04:16;95032.22;;;13.05;42.83
30744;BME280;17486;46.738;7.622;2023-03-19T01:06:42;95083.41;;;13.36;42.74
30744;BME280;17486;46.738;7.622;2023-03-19T01:09:08;95054.00;;;13.18;42.67
30744;BME280;17486;46.738;7.622;2023-03-19T01:11:33;95033.44;;;12.99;42.60
30744;BME280;17486;46.738;7.622;2023-03-19T01:13:58;95023.41;;;12.93;42.58
30744;BME280;17486;46.738;7.622;2023-03-19T01:16:24;95009.25;;;12.83;42.51
30744;BME280;17486;46.738;7.622;2023-03-19T01:18:49;95033.84;;;12.93;42.72
30744;BME280;17486;46.738;7.622;2023-03-19T01:21:15;95037.38;;;12.92;42.44
30744;BME280;17486;46.738;7.622;2023-03-19T01:23:41;95079.38;;;13.16;42.34
30744;BME280;17486;46.738;7.622;2023-03-19T01:26:06;95096.16;;;13.26;42.40
30744;BME280;17486;46.738;7.622;2023-03-19T01:28:32;95047.06;;;12.90;42.25
30744;BME280;17486;46.738;7.622;2023-03-19T01:30:59;95042.50;;;12.79;42.21
30744;BME280;17486;46.738;7.622;2023-03-19T01:33:26;95096.06;;;13.14;41.95
30744;BME280;17486;46.738;7.622;2023-03-19T01:35:51;95111.56;;;13.17;42.15
30744;BME280;17486;46.738;7.622;2023-03-19T01:38:17;95042.16;;;12.85;42.06
30744;BME280;17486;46.738;7.622;2023-03-19T01:40:44;95039.81;;;12.81;41.89
30744;BME280;17486;46.738;7.622;2023-03-19T01:43:21;95090.84;;;13.14;41.99
30744;BME280;17486;46.738;7.622;2023-03-19T01:45:49;95041.50;;;12.82;42.16
30744;BME280;17486;46.738;7.622;2023-03-19T01:48:31;95071.75;;;12.99;41.98
30744;BME280;17486;46.738;7.622;2023-03-19T01:50:59;95052.66;;;12.84;41.81
30744;BME280;17486;46.738;7.622;2023-03-19T01:53:29;95092.72;;;13.12;41.94
30744;BME280;17486;46.738;7.622;2023-03-19T01:55:59;95104.00;;;13.12;41.77
30744;BME280;17486;46.738;7.622;2023-03-19T01:58:26;95090.50;;;13.05;41.80
30744;BME280;17486;46.738;7.622;2023-03-19T02:00:52;95077.81;;;12.99;42.03
30744;BME280;17486;46.738;7.622;2023-03-19T02:03:18;95010.84;;;12.56;42.16
30744;BME280;17486;46.738;7.622;2023-03-19T02:05:44;95077.09;;;12.97;41.95
30744;BME280;17486;46.738;7.622;2023-03-19T02:08:13;95080.41;;;12.99;42.22
30744;BME280;17486;46.738;7.622;2023-03-19T02:10:39;95086.56;;;12.98;42.53
30744;BME280;17486;46.738;7.622;2023-03-19T02:13:05;95078.13;;;12.94;42.36
30744;BME280;17486;46.738;7.622;2023-03-19T02:15:31;95077.47;;;12.91;42.36
30744;BME280;17486;46.738;7.622;2023-03-19T02:17:56;95028.81;;;12.61;42.71
30744;BME280;17486;46.738;7.622;2023-03-19T02:20:50;95091.16;;;12.94;42.64
30744;BME280;17486;46.738;7.622;2023-03-19T02:23:34;95088.66;;;12.93;42.49
30744;BME280;17486;46.738;7.622;2023-03-19T02:26:05;95042.16;;;12.56;42.67
30744;BME280;17486;46.738;7.622;2023-03-19T02:28:33;95101.03;;;12.89;42.70
30744;BME280;17486;46.738;7.622;2023-03-19T02:30:59;95106.84;;;12.80;42.59
30744;BME280;17486;46.738;7.622;2023-03-19T02:33:24;95063.84;;;12.57;42.63
30744;BME280;17486;46.738;7.622;2023-03-19T02:35:51;95046.41;;;12.43;42.97
30744;BME280;17486;46.738;7.622;2023-03-19T02:38:17;95107.94;;;12.76;43.37
30744;BME280;17486;46.738;7.622;2023-03-19T02:41:06;95102.53;;;12.65;43.52
30744;BME280;17486;46.738;7.622;2023-03-19T02:43:34;95089.75;;;12.60;43.65
30744;BME280;17486;46.738;7.622;2023-03-19T02:46:01;95049.69;;;12.32;43.67
30744;BME280;17486;46.738;7.622;2023-03-19T02:48:27;95115.47;;;12.66;43.74
30744;BME280;17486;46.738;7.622;2023-03-19T02:50:53;95106.91;;;12.64;43.89
30744;BME280;17486;46.738;7.622;2023-03-19T02:53:19;95057.59;;;12.31;44.07
30744;BME280;17486;46.738;7.622;2023-03-19T02:55:44;95055.91;;;12.30;43.77
30744;BME280;17486;46.738;7.622;2023-03-19T02:58:10;95051.06;;;12.23;43.77
30744;BME280;17486;46.738;7.622;2023-03-19T03:00:35;95046.13;;;12.19;44.42
30744;BME280;17486;46.738;7.622;2023-03-19T03:03:01;95113.53;;;12.55;44.44
30744;BME280;17486;46.738;7.622;2023-03-19T03:05:27;95058.16;;;12.21;44.13
30744;BME280;17486;46.738;7.622;2023-03-19T03:07:52;95053.94;;;12.19;44.61
30744;BME280;17486;46.738;7.622;2023-03-19T03:10:18;95115.75;;;12.47;44.62
30744;BME280;17486;46.738;7.622;2023-03-19T03:12:44;95110.25;;;12.52;44.45
30744;BME280;17486;46.738;7.622;2023-03-19T03:15:10;95112.09;;;12.50;44.63
30744;BME280;17486;46.738;7.622;2023-03-19T03:17:41;95090.56;;;12.32;44.50
30744;BME280;17486;46.738;7.622;2023-03-19T03:20:08;95106.69;;;12.38;44.60
30744;BME280;17486;46.738;7.622;2023-03-19T03:22:35;95099.03;;;12.35;45.25
30744;BME280;17486;46.738;7.622;2023-03-19T03:25:01;95127.38;;;12.41;44.96
30744;BME280;17486;46.738;7.622;2023-03-19T03:27:26;95054.47;;;11.95;45.50
30744;BME280;17486;46.738;7.622;2023-03-19T03:29:52;95085.00;;;12.07;45.57
30744;BME280;17486;46.738;7.622;2023-03-19T03:32:17;95122.59;;;12.34;45.42
30744;BME280;17486;46.738;7.622;2023-03-19T03:34:43;95089.84;;;11.99;45.74
30744;BME280;17486;46.738;7.622;2023-03-19T03:37:10;95100.00;;;12.04;45.91
30744;BME280;17486;46.738;7.622;2023-03-19T03:39:36;95022.84;;;11.55;45.63
30744;BME280;17486;46.738;7.622;2023-03-19T03:42:02;95138.59;;;12.13;45.94
30744;BME280;17486;46.738;7.622;2023-03-19T03:44:27;95130.63;;;12.00;45.82
30744;BME280;17486;46.738;7.622;2023-03-19T03:46:53;95077.50;;;11.71;45.53
30744;BME280;17486;46.738;7.622;2023-03-19T03:49:18;95099.28;;;11.86;46.04
30744;BME280;17486;46.738;7.622;2023-03-19T03:51:43;95131.25;;;12.04;45.98
30744;BME280;17486;46.738;7.622;2023-03-19T03:54:09;95145.75;;;12.09;45.78
30744;BME280;17486;46.738;7.622;2023-03-19T03:56:34;95143.97;;;12.10;45.88
30744;BME280;17486;46.738;7.622;2023-03-19T03:59:00;95144.81;;;12.10;45.50
30744;BME280;17486;46.738;7.622;2023-03-19T04:01:26;95138.25;;;12.03;45.49
30744;BME280;17486;46.738;7.622;2023-03-19T04:03:51;95141.63;;;12.05;45.71
30744;BME280;17486;46.738;7.622;2023-03-19T04:06:18;95136.56;;;12.02;45.61
30744;BME280;17486;46.738;7.622;2023-03-19T04:08:45;95096.25;;;11.77;46.14
30744;BME280;17486;46.738;7.622;2023-03-19T04:11:11;95125.16;;;11.89;45.97
30744;BME280;17486;46.738;7.622;2023-03-19T04:13:36;95111.09;;;11.91;45.86
30744;BME280;17486;46.738;7.622;2023-03-19T04:16:03;95127.06;;;12.01;46.55
30744;BME280;17486;46.738;7.622;2023-03-19T04:18:29;95162.13;;;12.11;46.34
30744;BME280;17486;46.738;7.622;2023-03-19T04:20:54;95143.81;;;12.13;46.01
30744;BME280;17486;46.738;7.622;2023-03-19T04:23:21;95115.72;;;12.02;45.92
30744;BME280;17486;46.738;7.622;2023-03-19T04:25:46;95058.78;;;11.64;46.02
30744;BME280;17486;46.738;7.622;2023-03-19T04:28:12;95067.59;;;11.77;46.14
30744;BME280;17486;46.738;7.622;2023-03-19T04:30:37;95123.97;;;12.10;46.16
30744;BME280;17486;46.738;7.622;2023-03-19T04:33:03;95125.91;;;12.07;46.37
30744;BME280;17486;46.738;7.622;2023-03-19T04:35:29;95091.25;;;11.89;46.30
30744;BME280;17486;46.738;7.622;2023-03-19T04:37:55;95135.97;;;12.13;45.91
30744;BME280;17486;46.738;7.622;2023-03-19T04:40:20;95103.59;;;12.01;46.19
30744;BME280;17486;46.738;7.622;2023-03-19T04:42:46;95078.56;;;11.83;46.48
30744;BME280;17486;46.738;7.622;2023-03-19T04:45:11;95144.44;;;12.17;46.18
30744;BME280;17486;46.738;7.622;2023-03-19T04:47:37;95092.38;;;11.85;45.97
30744;BME280;17486;46.738;7.622;2023-03-19T04:50:05;95119.63;;;11.95;46.28
30744;BME280;17486;46.738;7.622;2023-03-19T04:52:32;95149.69;;;12.01;46.40
30744;BME280;17486;46.738;7.622;2023-03-19T04:54:57;95132.88;;;11.90;46.28
30744;BME280;17486;46.738;7.622;2023-03-19T04:57:23;95077.25;;;11.45;46.66
30744;BME280;17486;46.738;7.622;2023-03-19T04:59:48;95096.28;;;11.45;46.40
30744;BME280;17486;46.738;7.622;2023-03-19T05:02:14;95089.09;;;11.35;47.21
30744;BME280;17486;46.738;7.622;2023-03-19T05:04:39;95083.53;;;11.25;47.41
30744;BME280;17486;46.738;7.622;2023-03-19T05:07:05;95100.00;;;11.25;47.13
30744;BME280;17486;46.738;7.622;2023-03-19T05:09:31;95085.91;;;11.14;47.82
30744;BME280;17486;46.738;7.622;2023-03-19T05:11:57;95095.72;;;11.08;47.89
30744;BME280;17486;46.738;7.622;2023-03-19T05:14:23;95176.09;;;11.47;48.06
30744;BME280;17486;46.738;7.622;2023-03-19T05:16:48;95157.28;;;11.41;48.27
30744;BME280;17486;46.738;7.622;2023-03-19T05:19:14;95147.97;;;11.37;47.75
30744;BME280;17486;46.738;7.622;2023-03-19T05:21:39;95168.28;;;11.47;48.07
30744;BME280;17486;46.738;7.622;2023-03-19T05:24:05;95112.44;;;11.20;48.03
30744;BME280;17486;46.738;7.622;2023-03-19T05:26:31;95153.25;;;11.52;48.38
30744;BME280;17486;46.738;7.622;2023-03-19T05:28:56;95166.50;;;11.63;48.16
30744;BME280;17486;46.738;7.622;2023-03-19T05:31:22;95171.56;;;11.66;47.94
30744;BME280;17486;46.738;7.622;2023-03-19T05:33:48;95117.06;;;11.31;48.53
30744;BME280;17486;46.738;7.622;2023-03-19T05:36:13;95177.44;;;11.70;48.11
30744;BME280;17486;46.738;7.622;2023-03-19T05:38:39;95165.78;;;11.61;47.65
30744;BME280;17486;46.738;7.622;2023-03-19T05:41:05;95176.44;;;11.72;47.68
30744;BME280;17486;46.738;7.622;2023-03-19T05:43:31;95119.47;;;11.34;47.99
30744;BME280;17486;46.738;7.622;2023-03-19T05:45:56;95121.34;;;11.32;48.13
30744;BME280;17486;46.738;7.622;2023-03-19T05:48:23;95181.00;;;11.69;48.71
30744;BME280;17486;46.738;7.622;2023-03-19T05:50:48;95186.94;;;11.71;48.61
30744;BME280;17486;46.738;7.622;2023-03-19T05:53:14;95175.44;;;11.59;48.88
30744;BME280;17486;46.738;7.622;2023-03-19T05:55:39;95191.06;;;11.59;48.46
30744;BME280;17486;46.738;7.622;2023-03-19T05:58:05;95179.44;;;11.49;48.26
30744;BME280;17486;46.738;7.622;2023-03-19T06:00:31;95200.78;;;11.55;48.77
30744;BME280;17486;46.738;7.622;2023-03-19T06:02:57;95193.25;;;11.51;48.60
30744;BME280;17486;46.738;7.622;2023-03-19T06:05:22;95131.97;;;11.11;49.02
30744;BME280;17486;46.738;7.622;2023-03-19T06:07:48;95116.69;;;11.05;48.84
30744;BME280;17486;46.738;7.622;2023-03-19T06:10:13;95127.38;;;11.17;49.14
30744;BME280;17486;46.738;7.622;2023-03-19T06:12:39;95126.53;;;11.16;49.07
30744;BME280;17486;46.738;7.622;2023-03-19T06:15:05;95212.91;;;11.56;49.34
30744;BME280;17486;46.738;7.622;2023-03-19T06:17:31;95128.19;;;11.17;49.63
30744;BME280;17486;46.738;7.622;2023-03-19T06:19:56;95139.97;;;11.24;50.09
30744;BME280;17486;46.738;7.622;2023-03-19T06:22:21;95133.00;;;11.25;49.96
30744;BME280;17486;46.738;7.622;2023-03-19T06:24:47;95123.50;;;11.24;49.80
30744;BME280;17486;46.738;7.622;2023-03-19T06:27:12;95119.28;;;11.21;49.48
30744;BME280;17486;46.738;7.622;2023-03-19T06:29:37;95139.66;;;11.31;49.58
30744;BME280;17486;46.738;7.622;2023-03-19T06:32:03;95111.25;;;11.26;49.66
30744;BME280;17486;46.738;7.622;2023-03-19T06:34:29;95181.22;;;11.64;49.57
30744;BME280;17486;46.738;7.622;2023-03-19T06:36:54;95188.81;;;11.69;49.74
30744;BME280;17486;46.738;7.622;2023-03-19T06:39:20;95188.38;;;11.76;50.42
30744;BME280;17486;46.738;7.622;2023-03-19T06:41:46;95141.16;;;11.51;50.61
30744;BME280;17486;46.738;7.622;2023-03-19T06:44:12;95122.53;;;11.42;50.23
30744;BME280;17486;46.738;7.622;2023-03-19T06:46:37;95203.66;;;11.83;50.61
30744;BME280;17486;46.738;7.622;2023-03-19T06:49:02;95185.25;;;11.86;51.09
30744;BME280;17486;46.738;7.622;2023-03-19T06:51:28;95192.13;;;11.87;51.23
30744;BME280;17486;46.738;7.622;2023-03-19T06:53:53;95190.28;;;11.89;50.62
30744;BME280;17486;46.738;7.622;2023-03-19T06:56:19;95185.16;;;11.87;50.42
30744;BME280;17486;46.738;7.622;2023-03-19T06:58:45;95177.25;;;11.89;49.59
30744;BME280;17486;46.738;7.622;2023-03-19T07:01:10;95173.84;;;11.88;49.24
30744;BME280;17486;46.738;7.622;2023-03-19T07:03:35;95187.03;;;12.01;49.42
30744;BME280;17486;46.738;7.622;2023-03-19T07:06:01;95115.59;;;11.73;50.91
30744;BME280;17486;46.738;7.622;2023-03-19T07:08:26;95178.00;;;12.23;50.53
30744;BME280;17486;46.738;7.622;2023-03-19T07:10:55;95167.94;;;12.31;49.70
30744;BME280;17486;46.738;7.622;2023-03-19T07:13:20;95175.34;;;12.39;49.43
30744;BME280;17486;46.738;7.622;2023-03-19T07:15:47;95181.53;;;12.67;49.35
30744;BME280;17486;46.738;7.622;2023-03-19T07:18:13;95187.63;;;12.82;49.11
30744;BME280;17486;46.738;7.622;2023-03-19T07:20:38;95138.13;;;12.51;48.25
30744;BME280;17486;46.738;7.622;2023-03-19T07:23:04;95177.94;;;12.84;49.25
30744;BME280;17486;46.738;7.622;2023-03-19T07:25:30;95109.22;;;12.40;49.57
30744;BME280;17486;46.738;7.622;2023-03-19T07:27:55;95174.22;;;12.73;49.08
30744;BME280;17486;46.738;7.622;2023-03-19T07:30:21;95163.75;;;12.59;48.68
30744;BME280;17486;46.738;7.622;2023-03-19T07:32:46;95121.56;;;12.22;48.67
30744;BME280;17486;46.738;7.622;2023-03-19T07:35:12;95172.84;;;12.52;48.82
30744;BME280;17486;46.738;7.622;2023-03-19T07:37:38;95131.34;;;12.33;48.69
30744;BME280;17486;46.738;7.622;2023-03-19T07:40:04;95167.38;;;12.56;47.97
30744;BME280;17486;46.738;7.622;2023-03-19T07:42:31;95127.91;;;12.32;48.04
30744;BME280;17486;46.738;7.622;2023-03-19T07:44:56;95173.66;;;12.68;48.27
30744;BME280;17486;46.738;7.622;2023-03-19T07:47:22;95175.97;;;12.73;48.24
30744;BME280;17486;46.738;7.622;2023-03-19T07:49:47;95188.66;;;12.79;48.00
30744;BME280;17486;46.738;7.622;2023-03-19T07:52:12;95182.63;;;12.79;48.58
30744;BME280;17486;46.738;7.622;2023-03-19T07:54:38;95193.56;;;12.69;49.02
30744;BME280;17486;46.738;7.622;2023-03-19T07:57:03;95178.19;;;12.65;48.95
30744;BME280;17486;46.738;7.622;2023-03-19T07:59:29;95197.88;;;12.85;49.37
30744;BME280;17486;46.738;7.622;2023-03-19T08:01:54;95194.72;;;12.94;48.77
30744;BME280;17486;46.738;7.622;2023-03-19T08:04:20;95135.44;;;12.67;49.52
30744;BME280;17486;46.738;7.622;2023-03-19T08:06:45;95210.78;;;13.17;49.31
30744;BME280;17486;46.738;7.622;2023-03-19T08:09:11;95188.94;;;13.18;49.15
30744;BME280;17486;46.738;7.622;2023-03-19T08:11:36;95126.28;;;12.89;48.80
30744;BME280;17486;46.738;7.622;2023-03-19T08:14:03;95125.00;;;13.10;49.33
30744;BME280;17486;46.738;7.622;2023-03-19T08:16:28;95210.97;;;13.71;49.17
30744;BME280;17486;46.738;7.622;2023-03-19T08:18:54;95198.25;;;13.80;48.33
30744;BME280;17486;46.738;7.622;2023-03-19T08:21:19;95222.13;;;13.88;48.32
30744;BME280;17486;46.738;7.622;2023-03-19T08:23:45;95189.94;;;13.87;47.69
30744;BME280;17486;46.738;7.622;2023-03-19T08:26:10;95145.81;;;13.68;46.82
30744;BME280;17486;46.738;7.622;2023-03-19T08:28:36;95212.09;;;14.09;46.83
30744;BME280;17486;46.738;7.622;2023-03-19T08:31:07;95208.75;;;14.20;46.43
30744;BME280;17486;46.738;7.622;2023-03-19T08:33:33;95202.94;;;14.29;45.77
30744;BME280;17486;46.738;7.622;2023-03-19T08:36:09;95202.50;;;14.22;45.65
30744;BME280;17486;46.738;7.622;2023-03-19T08:38:36;95208.16;;;14.29;45.11
30744;BME280;17486;46.738;7.622;2023-03-19T08:41:02;95218.25;;;14.35;45.46
30744;BME280;17486;46.738;7.622;2023-03-19T08:43:30;95148.88;;;14.02;45.08
30744;BME280;17486;46.738;7.622;2023-03-19T08:45:56;95220.78;;;14.50;44.71
30744;BME280;17486;46.738;7.622;2023-03-19T08:48:21;95173.53;;;14.25;44.29
30744;BME280;17486;46.738;7.622;2023-03-19T08:50:58;95193.38;;;14.42;43.89
30744;BME280;17486;46.738;7.622;2023-03-19T08:53:24;95167.72;;;14.35;43.63
30744;BME280;17486;46.738;7.622;2023-03-19T08:55:54;95238.47;;;14.73;43.29
30744;BME280;17486;46.738;7.622;2023-03-19T08:58:20;95226.78;;;14.79;42.84
30744;BME280;17486;46.738;7.622;2023-03-19T09:00:46;95212.81;;;14.79;42.31
30744;BME280;17486;46.738;7.622;2023-03-19T09:03:13;95203.50;;;14.74;41.81
30744;BME280;17486;46.738;7.622;2023-03-19T09:05:39;95223.31;;;14.91;41.40
30744;BME280;17486;46.738;7.622;2023-03-19T09:08:05;95241.88;;;15.01;41.44
30744;BME280;17486;46.738;7.622;2023-03-19T09:10:31;95228.03;;;14.99;41.38
30744;BME280;17486;46.738;7.622;2023-03-19T09:12:56;95238.81;;;15.07;42.18
30744;BME280;17486;46.738;7.622;2023-03-19T09:15:22;95219.84;;;15.04;42.33
30744;BME280;17486;46.738;7.622;2023-03-19T09:17:48;95226.78;;;15.18;42.71
30744;BME280;17486;46.738;7.622;2023-03-19T09:20:13;95242.09;;;15.24;42.78
30744;BME280;17486;46.738;7.622;2023-03-19T09:22:38;95247.63;;;15.32;42.98
30744;BME280;17486;46.738;7.622;2023-03-19T09:25:05;95229.81;;;15.37;42.86
30744;BME280;17486;46.738;7.622;2023-03-19T09:27:30;95177.75;;;15.20;42.72
30744;BME280;17486;46.738;7.622;2023-03-19T09:29:55;95166.00;;;15.25;42.09
30744;BME280;17486;46.738;7.622;2023-03-19T09:32:21;95226.44;;;15.61;41.83
30744;BME280;17486;46.738;7.622;2023-03-19T09:34:46;95207.16;;;15.62;41.47
30744;BME280;17486;46.738;7.622;2023-03-19T09:37:12;95246.75;;;15.70;41.20
30744;BME280;17486;46.738;7.622;2023-03-19T09:39:37;95206.22;;;15.63;41.18
30744;BME280;17486;46.738;7.622;2023-03-19T09:42:28;95227.72;;;15.81;41.17
30744;BME280;17486;46.738;7.622;2023-03-19T09:44:57;95213.00;;;15.79;40.51
30744;BME280;17486;46.738;7.622;2023-03-19T09:47:31;95222.34;;;15.83;40.04
30744;BME280;17486;46.738;7.622;2023-03-19T09:50:19;95230.72;;;15.88;40.64
30744;BME280;17486;46.738;7.622;2023-03-19T09:53:02;95197.88;;;15.82;40.41
30744;BME280;17486;46.738;7.622;2023-03-19T09:58:12;95212.53;;;15.98;40.28
30744;BME280;17486;46.738;7.622;2023-03-19T10:00:39;95196.28;;;15.93;40.42
30744;BME280;17486;46.738;7.622;2023-03-19T10:06:52;95204.19;;;16.17;40.40
30744;BME280;17486;46.738;7.622;2023-03-19T10:15:14;95134.59;;;16.35;39.52
30744;BME280;17486;46.738;7.622;2023-03-19T10:20:48;95208.19;;;16.94;37.89
30744;BME280;17486;46.738;7.622;2023-03-19T10:23:38;95206.41;;;16.94;37.93
30744;BME280;17486;46.738;7.622;2023-03-19T10:26:20;95200.22;;;16.95;37.70
30744;BME280;17486;46.738;7.622;2023-03-19T10:29:09;95193.03;;;16.97;40.59
30744;BME280;17486;46.738;7.622;2023-03-19T10:31:51;95195.19;;;17.03;38.63
30744;BME280;17486;46.738;7.622;2023-03-19T10:34:32;95203.78;;;17.05;38.08
30744;BME280;17486;46.738;7.622;2023-03-19T10:37:03;95197.38;;;17.10;37.99
30744;BME280;17486;46.738;7.622;2023-03-19T10:39:34;95136.50;;;16.80;37.52
30744;BME280;17486;46.738;7.622;2023-03-19T10:44:55;95186.38;;;17.16;37.29
30744;BME280;17486;46.738;7.622;2023-03-19T10:47:25;95176.09;;;17.13;37.26
30744;BME280;17486;46.738;7.622;2023-03-19T10:49:51;95202.28;;;17.26;37.16
30744;BME280;17486;46.738;7.622;2023-03-19T10:52:35;95146.19;;;16.91;36.91
30744;BME280;17486;46.738;7.622;2023-03-19T10:55:04;95150.28;;;16.95;36.99
30744;BME280;17486;46.738;7.622;2023-03-19T10:57:31;95091.34;;;16.64;37.04
30744;BME280;17486;46.738;7.622;2023-03-19T11:00:02;95178.13;;;17.20;37.03
30744;BME280;17486;46.738;7.622;2023-03-19T11:02:29;95174.78;;;17.18;37.00
30744;BME280;17486;46.738;7.622;2023-03-19T11:05:26;95185.44;;;17.28;36.95
30744;BME280;17486;46.738;7.622;2023-03-19T11:08:14;95184.34;;;17.31;37.06
30744;BME280;17486;46.738;7.622;2023-03-19T11:10:47;95183.84;;;17.37;37.04
30744;BME280;17486;46.738;7.622;2023-03-19T11:13:24;95177.53;;;17.39;36.87
30744;BME280;17486;46.738;7.622;2023-03-19T11:15:51;95178.97;;;17.32;36.80
30744;BME280;17486;46.738;7.622;2023-03-19T11:18:34;95151.72;;;16.99;37.21
30744;BME280;17486;46.738;7.622;2023-03-19T11:21:27;95190.19;;;17.34;37.20
30744;BME280;17486;46.738;7.622;2023-03-19T11:24:02;95183.75;;;17.27;37.15
30744;BME280;17486;46.738;7.622;2023-03-19T11:26:28;95195.22;;;17.37;37.21
30744;BME280;17486;46.738;7.622;2023-03-19T11:29:04;95123.66;;;17.00;36.81
30744;BME280;17486;46.738;7.622;2023-03-19T11:31:37;95124.38;;;17.02;37.00
30744;BME280;17486;46.738;7.622;2023-03-19T11:34:24;95179.47;;;17.37;37.11
30744;BME280;17486;46.738;7.622;2023-03-19T11:37:32;95183.28;;;17.33;37.05
30744;BME280;17486;46.738;7.622;2023-03-19T11:40:13;95185.56;;;17.27;37.43
30744;BME280;17486;46.738;7.622;2023-03-19T11:45:39;95165.34;;;17.16;37.48
30744;BME280;17486;46.738;7.622;2023-03-19T11:48:30;95121.72;;;16.90;37.32
30744;BME280;17486;46.738;7.622;2023-03-19T11:51:08;95115.72;;;16.88;36.85
30744;BME280;17486;46.738;7.622;2023-03-19T11:56:43;95171.31;;;17.18;36.86
30744;BME280;17486;46.738;7.622;2023-03-19T11:59:57;95169.03;;;17.13;37.00
30744;BME280;17486;46.738;7.622;2023-03-19T12:04:56;95165.22;;;17.06;36.97
30744;BME280;17486;46.738;7.622;2023-03-19T12:12:33;95139.81;;;16.71;36.88
30744;BME280;17486;46.738;7.622;2023-03-19T12:15:30;95170.63;;;16.80;37.36
30744;BME280;17486;46.738;7.622;2023-03-19T12:18:40;95166.31;;;16.68;37.97
30744;BME280;17486;46.738;7.622;2023-03-19T12:21:20;95166.16;;;16.58;38.53
30744;BME280;17486;46.738;7.622;2023-03-19T12:35:17;95157.50;;;15.72;41.73
30744;BME280;17486;46.738;7.622;2023-03-19T12:38:12;95194.00;;;15.88;42.70
30744;BME280;17486;46.738;7.622;2023-03-19T12:41:02;95209.84;;;15.86;42.93
30744;BME280;17486;46.738;7.622;2023-03-19T12:44:12;95196.84;;;15.85;42.81
30744;BME280;17486;46.738;7.622;2023-03-19T12:46:25;95218.78;;;15.84;43.68
30744;BME280;17486;46.738;7.622;2023-03-19T12:51:31;95148.59;;;15.37;43.21
30744;BME280;17486;46.738;7.622;2023-03-19T12:54:13;95227.38;;;15.60;43.67
30744;BME280;17486;46.738;7.622;2023-03-19T12:56:48;95230.22;;;15.31;45.28
30744;BME280;17486;46.738;7.622;2023-03-19T13:03:04;95235.38;;;14.94;46.78
30744;BME280;17486;46.738;7.622;2023-03-19T13:10:37;95205.94;;;14.50;49.45
30744;BME280;17486;46.738;7.622;2023-03-19T13:16:02;95237.63;;;14.46;50.50
30744;BME280;17486;46.738;7.622;2023-03-19T13:18:39;95247.56;;;14.40;50.36
30744;BME280;17486;46.738;7.622;2023-03-19T13:21:20;95200.97;;;14.05;50.61
30744;BME280;17486;46.738;7.622;2023-03-19T13:23:50;95247.50;;;14.27;50.95
30744;BME280;17486;46.738;7.622;2023-03-19T13:26:22;95225.06;;;14.10;51.92
30744;BME280;17486;46.738;7.622;2023-03-19T13:28:54;95248.00;;;14.20;52.53
30744;BME280;17486;46.738;7.622;2023-03-19T13:31:24;95260.91;;;14.23;53.28
30744;BME280;17486;46.738;7.622;2023-03-19T13:34:05;95260.16;;;14.21;53.32
30744;BME280;17486;46.738;7.622;2023-03-19T13:36:36;95247.94;;;14.21;53.60
30744;BME280;17486;46.738;7.622;2023-03-19T13:39:11;95266.31;;;14.20;53.19
30744;BME280;17486;46.738;7.622;2023-03-19T13:46:48;95249.03;;;14.17;54.08
30744;BME280;17486;46.738;7.622;2023-03-19T13:51:52;95170.47;;;13.64;54.21
30744;BME280;17486;46.738;7.622;2023-03-19T13:54:19;95236.09;;;14.01;54.42
30744;BME280;17486;46.738;7.622;2023-03-19T13:59:37;95242.75;;;13.92;54.89
30744;BME280;17486;46.738;7.622;2023-03-19T14:04:50;95245.31;;;13.80;55.56
30744;BME280;17486;46.738;7.622;2023-03-19T14:07:23;95234.75;;;13.81;54.93
30744;BME280;17486;46.738;7.622;2023-03-19T14:12:37;95177.78;;;13.45;55.22
30744;BME280;17486;46.738;7.622;2023-03-19T14:28:17;95210.78;;;14.29;54.84
30744;BME280;17486;46.738;7.622;2023-03-19T14:30:45;95223.03;;;14.56;53.46
30744;BME280;17486;46.738;7.622;2023-03-19T14:36:02;95178.16;;;15.14;51.69
30744;BME280;17486;46.738;7.622;2023-03-19T14:38:43;95196.50;;;15.27;50.29